Bude — V7XL2 — position and weather

sailwx.info

Track history (hours):
 
Tides and Currents Weather Stations Pressure Air Temp Water Temp Dewpoint Dewpoint Depression Visibility Wind Speed Wind Dir Waves Ship Positions

Bude

Last reported at 2016-May-02 23:19 UTC. Time now 2016-May-03 01:04 UTC.
Position N 38°41' W 009°11'.

Length 119 m; draft 6.2 m.

Type: Cargo ship. MMSI: 538004506.

Date/timePositionNaut miles runAvg speedWind from/ knotsBaromVisibWave heightAir tempDewpointWater temp
2016-May-02 23:19N 38°41' W 009°11'0 0.0
2016-May-02 22:16N 38°41' W 009°11'0 0.0
2016-May-02 18:07N 38°41' W 009°12'0 0.0
2016-May-02 17:28N 38°41' W 009°12'0 0.0
2016-May-02 13:25N 38°41' W 009°12'0 0.0
2016-May-02 12:10N 38°41' W 009°12'0 0.0
2016-May-02 09:29N 38°41' W 009°12'7 6.9
2016-May-02 08:28N 38°39' W 009°20'8 8.6
2016-May-02 07:33N 38°31' W 009°23'9 9.0
2016-May-02 06:33N 38°22' W 009°22'9 8.7
2016-May-02 05:33N 38°13' W 009°22'9 8.9
2016-May-02 04:33N 38°05' W 009°22'9 8.9
2016-May-02 03:33N 37°56' W 009°21'9 9.0
2016-May-02 02:33N 37°47' W 009°21'9 9.2
2016-May-02 01:32N 37°37' W 009°21'9 8.8
2016-May-02 00:33N 37°29' W 009°21'  
Track history (hours):
 
Tides and Currents Weather Stations Pressure Air Temp Water Temp Dewpoint Dewpoint Depression Visibility Wind Speed Wind Dir Waves Ship Positions

Bude

Last reported at 2016-May-02 23:19 UTC. Time now 2016-May-03 01:04 UTC.
Position N 38°41' W 009°11'.

Length 119 m; draft 6.2 m.

Type: Cargo ship. MMSI: 538004506.

Date/timePositionNaut miles runAvg speedWind from/ knotsBaromVisibWave heightAir tempDewpointWater temp
2016-May-02 23:19N 38°41' W 009°11'0 0.0
2016-May-02 22:16N 38°41' W 009°11'0 0.0
2016-May-02 18:07N 38°41' W 009°12'0 0.0
2016-May-02 17:28N 38°41' W 009°12'0 0.0
2016-May-02 13:25N 38°41' W 009°12'0 0.0
2016-May-02 12:10N 38°41' W 009°12'0 0.0
2016-May-02 09:29N 38°41' W 009°12'7 6.9
2016-May-02 08:28N 38°39' W 009°20'8 8.6
2016-May-02 07:33N 38°31' W 009°23'9 9.0
2016-May-02 06:33N 38°22' W 009°22'9 8.7
2016-May-02 05:33N 38°13' W 009°22'9 8.9
2016-May-02 04:33N 38°05' W 009°22'9 8.9
2016-May-02 03:33N 37°56' W 009°21'9 9.0
2016-May-02 02:33N 37°47' W 009°21'9 9.2
2016-May-02 01:32N 37°37' W 009°21'9 8.8
2016-May-02 00:33N 37°29' W 009°21'  

Dump ship's entire track history